Time;durP1;ratioP1;P1;durP2;ratioP2;P2;SDS_P1;SDS_P2;PMS_P1;PMS_P2;Temp;Humidity;BMP_temperature;BMP_pressure;BME280_temperature;BME280_humidity;BME280_pressure;Samples;Min_cycle;Max_cycle;Signal;HPM_P1;HPM_P2
2022/12/29 00:02:11;;;;;;;;;;;;;;;13.48;nan;100679.16;5039731;28;19917;-32
2022/12/29 00:04:37;;;;;;;;;;;;;;;13.45;nan;100683.19;5045252;28;20011;-32
2022/12/29 00:07:04;;;;;;;;;;;;;;;13.39;nan;100672.69;5042235;28;19925;-32
2022/12/29 00:09:29;;;;;;;;;;;;;;;13.37;nan;100678.34;5037038;28;19932;-32
2022/12/29 00:11:55;;;;;;;;;;;;;;;13.29;nan;100677.00;5044582;28;19916;-32
2022/12/29 00:17:04;;;;;;;;;;;;;;;13.27;nan;100678.31;5038290;28;19928;-32
2022/12/29 00:36:05;;;;;;;;;;;;;;;13.19;nan;100650.06;5041369;28;20289;-32
2022/12/29 00:44:06;;;;;;;;;;;;;;;13.24;nan;100644.69;5039815;28;19975;-32
2022/12/29 00:46:35;;;;;;;;;;;;;;;13.27;nan;100640.66;5043254;28;19971;-32
2022/12/29 00:51:45;;;;;;;;;;;;;;;13.30;nan;100629.38;5046230;28;19951;-32
2022/12/29 00:54:11;;;;;;;;;;;;;;;13.30;nan;100629.38;5035171;28;19921;-32
2022/12/29 00:56:36;;;;;;;;;;;;;;;13.24;nan;100623.16;5044838;28;19994;-32
2022/12/29 00:59:03;;;;;;;;;;;;;;;13.29;nan;100635.84;5041635;28;20393;-32
2022/12/29 01:01:28;;;;;;;;;;;;;;;13.31;nan;100633.69;5044550;28;19925;-32
2022/12/29 01:03:53;;;;;;;;;;;;;;;13.30;nan;100632.88;5043096;28;20302;-32
2022/12/29 01:06:19;;;;;;;;;;;;;;;13.33;nan;100617.28;5043661;28;19917;-32
2022/12/29 01:08:44;;;;;;;;;;;;;;;13.42;nan;100629.91;5045740;28;19925;-32
2022/12/29 01:11:10;;;;;;;;;;;;;;;13.42;nan;100635.28;5046524;28;20393;-32
2022/12/29 01:13:38;;;;;;;;;;;;;;;13.41;nan;100619.41;5042232;28;20003;-32
2022/12/29 01:16:03;;;;;;;;;;;;;;;13.37;nan;100623.72;5042901;28;20011;-32
2022/12/29 01:18:29;;;;;;;;;;;;;;;13.43;nan;100631.50;5038228;28;20354;-32
2022/12/29 01:21:01;;;;;;;;;;;;;;;13.39;nan;100621.56;5044088;28;19917;-32
2022/12/29 01:23:27;;;;;;;;;;;;;;;13.37;nan;100621.84;5045144;28;19939;-32
2022/12/29 01:25:52;;;;;;;;;;;;;;;13.35;nan;100615.91;5041261;28;21051;-32
2022/12/29 01:28:18;;;;;;;;;;;;;;;13.37;nan;100621.03;5038546;28;19921;-32
2022/12/29 01:30:43;;;;;;;;;;;;;;;13.30;nan;100618.63;5037659;28;19967;-32
2022/12/29 01:33:08;;;;;;;;;;;;;;;13.31;nan;100612.16;5045239;28;19921;-32
2022/12/29 01:35:34;;;;;;;;;;;;;;;13.32;nan;100613.78;5043193;28;19917;-32
2022/12/29 01:37:59;;;;;;;;;;;;;;;13.29;nan;100608.94;5042251;28;19921;-32
2022/12/29 01:40:24;;;;;;;;;;;;;;;13.28;nan;100601.91;5045249;28;19949;-32
2022/12/29 01:42:50;;;;;;;;;;;;;;;13.28;nan;100588.47;5042406;28;20039;-32
2022/12/29 01:45:17;;;;;;;;;;;;;;;13.27;nan;100594.91;5062198;22;20059;-34
2022/12/29 01:47:45;;;;;;;;;;;;;;;13.25;nan;100580.94;5064369;28;19921;-34
2022/12/29 01:50:15;;;;;;;;;;;;;;;13.22;nan;100573.41;5063455;28;19920;-34
2022/12/29 01:52:50;;;;;;;;;;;;;;;13.22;nan;100579.59;5063048;28;19916;-34
2022/12/29 01:55:15;;;;;;;;;;;;;;;13.25;nan;100573.66;5065040;28;19923;-34
2022/12/29 01:57:43;;;;;;;;;;;;;;;13.25;nan;100570.16;5060245;28;20360;-34
2022/12/29 02:00:10;;;;;;;;;;;;;;;13.22;nan;100559.94;5059260;28;19929;-35
2022/12/29 02:02:35;;;;;;;;;;;;;;;13.23;nan;100558.88;5059855;28;19966;-34
2022/12/29 02:05:07;;;;;;;;;;;;;;;13.27;nan;100552.66;5062048;28;19956;-34
2022/12/29 02:07:32;;;;;;;;;;;;;;;13.23;nan;100551.59;5058353;28;20341;-34
2022/12/29 02:10:00;;;;;;;;;;;;;;;13.28;nan;100554.31;5060860;28;20035;-34
2022/12/29 02:12:25;;;;;;;;;;;;;;;13.27;nan;100555.34;5060425;28;20003;-34
2022/12/29 02:14:54;;;;;;;;;;;;;;;13.27;nan;100557.25;5059512;28;20065;-34
2022/12/29 02:17:22;;;;;;;;;;;;;;;13.25;nan;100545.94;5062216;28;20286;-34
2022/12/29 02:20:11;;;;;;;;;;;;;;;13.29;nan;100550.53;5062400;28;19925;-34
2022/12/29 02:22:55;;;;;;;;;;;;;;;13.36;nan;100552.94;5060596;28;19927;-34
2022/12/29 02:25:40;;;;;;;;;;;;;;;13.43;nan;100545.38;5056872;28;19968;-34
2022/12/29 02:28:28;;;;;;;;;;;;;;;13.39;nan;100546.22;5060413;28;19964;-34
2022/12/29 02:30:53;;;;;;;;;;;;;;;13.37;nan;100541.09;5059422;28;19964;-34
2022/12/29 02:33:23;;;;;;;;;;;;;;;13.34;nan;100536.28;5062446;28;19982;-34
2022/12/29 02:36:05;;;;;;;;;;;;;;;13.36;nan;100542.19;5056688;28;19928;-33
2022/12/29 02:38:31;;;;;;;;;;;;;;;13.37;nan;100540.31;5057832;28;19927;-34
2022/12/29 02:41:07;;;;;;;;;;;;;;;13.33;nan;100534.66;5061215;28;19917;-35
2022/12/29 02:43:36;;;;;;;;;;;;;;;13.35;nan;100527.13;5061390;28;20301;-34
2022/12/29 02:46:10;;;;;;;;;;;;;;;13.39;nan;100522.81;5061606;28;19942;-34
2022/12/29 02:48:56;;;;;;;;;;;;;;;13.40;nan;100512.84;5059910;28;20011;-34
2022/12/29 02:51:25;;;;;;;;;;;;;;;13.40;nan;100529.78;5057439;28;20003;-34
2022/12/29 02:56:36;;;;;;;;;;;;;;;13.42;nan;100526.81;5060797;28;19926;-34
2022/12/29 02:59:01;;;;;;;;;;;;;;;13.40;nan;100529.78;5060298;28;19920;-35
2022/12/29 03:01:33;;;;;;;;;;;;;;;13.40;nan;100527.09;5059401;28;19924;-34
2022/12/29 03:04:01;;;;;;;;;;;;;;;13.35;nan;100527.13;5061646;28;19987;-34
2022/12/29 03:06:27;;;;;;;;;;;;;;;13.24;nan;100498.59;5061378;28;20263;-34
2022/12/29 03:09:02;;;;;;;;;;;;;;;13.26;nan;100512.59;5057802;28;19931;-34
2022/12/29 03:17:40;;;;;;;;;;;;;;;13.28;nan;100513.13;5059273;28;20504;-34
2022/12/29 03:20:10;;;;;;;;;;;;;;;13.30;nan;100521.75;5060067;28;20003;-34
2022/12/29 03:22:38;;;;;;;;;;;;;;;13.22;nan;100511.53;5054439;28;19921;-34
2022/12/29 03:25:04;;;;;;;;;;;;;;;13.26;nan;100520.66;5057781;28;20289;-34
2022/12/29 03:27:31;;;;;;;;;;;;;;;13.29;nan;100514.75;5056252;28;19928;-34
2022/12/29 03:30:00;;;;;;;;;;;;;;;13.26;nan;100512.59;5059930;28;19917;-34
2022/12/29 03:32:32;;;;;;;;;;;;;;;13.27;nan;100509.63;5058815;28;19917;-34
2022/12/29 03:34:58;;;;;;;;;;;;;;;13.29;nan;100504.81;5057690;28;19989;-35
2022/12/29 03:37:25;;;;;;;;;;;;;;;13.30;nan;100503.72;5055670;28;19925;-34
2022/12/29 03:39:51;;;;;;;;;;;;;;;13.37;nan;100508.81;5059583;28;19924;-34
2022/12/29 03:42:18;;;;;;;;;;;;;;;13.38;nan;100499.66;5059841;28;19962;-34
2022/12/29 03:44:44;;;;;;;;;;;;;;;13.43;nan;100490.75;5057344;28;19962;-34
2022/12/29 03:47:11;;;;;;;;;;;;;;;13.42;nan;100498.03;5059113;28;19921;-35
2022/12/29 03:49:36;;;;;;;;;;;;;;;13.46;nan;100488.31;5060216;28;19943;-34
2022/12/29 03:52:02;;;;;;;;;;;;;;;13.48;nan;100478.13;5060766;28;20381;-34
2022/12/29 03:54:27;;;;;;;;;;;;;;;13.45;nan;100475.94;5057256;28;19986;-34
2022/12/29 03:56:52;;;;;;;;;;;;;;;13.51;nan;100485.66;5058297;28;19928;-34
2022/12/29 03:59:17;;;;;;;;;;;;;;;13.54;nan;100474.31;5056976;28;19926;-34
2022/12/29 04:01:43;;;;;;;;;;;;;;;13.59;nan;100476.19;5058749;28;19917;-35
2022/12/29 04:04:08;;;;;;;;;;;;;;;13.61;nan;100472.13;5060588;28;19977;-34
2022/12/29 04:06:34;;;;;;;;;;;;;;;13.65;nan;100477.00;5057434;28;20551;-35
2022/12/29 04:08:59;;;;;;;;;;;;;;;13.63;nan;100471.06;5058620;28;20673;-34
2022/12/29 04:11:24;;;;;;;;;;;;;;;13.60;nan;100469.72;5057212;28;19923;-34
2022/12/29 04:13:50;;;;;;;;;;;;;;;13.65;nan;100464.34;5059927;28;19920;-34
2022/12/29 04:16:15;;;;;;;;;;;;;;;13.63;nan;100457.59;5062707;28;19916;-35
2022/12/29 04:18:40;;;;;;;;;;;;;;;13.66;nan;100465.16;5057237;28;20000;-34
2022/12/29 04:21:06;;;;;;;;;;;;;;;13.72;nan;100472.09;5059940;28;20383;-34
2022/12/29 04:23:33;;;;;;;;;;;;;;;13.73;nan;100477.22;5061094;28;20331;-35
2022/12/29 04:25:58;;;;;;;;;;;;;;;13.73;nan;100473.72;5064255;28;20198;-34
2022/12/29 04:28:24;;;;;;;;;;;;;;;13.71;nan;100471.31;5064244;28;19976;-34
2022/12/29 04:30:49;;;;;;;;;;;;;;;13.69;nan;100478.03;5061791;28;20409;-34
2022/12/29 04:33:15;;;;;;;;;;;;;;;13.68;nan;100465.66;5064398;28;19952;-34
2022/12/29 04:35:41;;;;;;;;;;;;;;;13.63;nan;100462.97;5060648;28;20280;-35
2022/12/29 04:38:06;;;;;;;;;;;;;;;13.70;nan;100474.28;5063033;28;20389;-34
2022/12/29 04:40:32;;;;;;;;;;;;;;;13.67;nan;100469.44;5061699;28;19963;-35
2022/12/29 04:42:57;;;;;;;;;;;;;;;13.67;nan;100464.06;5061271;28;19920;-34
2022/12/29 04:45:22;;;;;;;;;;;;;;;13.73;nan;100462.94;5061085;28;19977;-34
2022/12/29 04:47:48;;;;;;;;;;;;;;;13.75;nan;100458.09;5059714;28;20452;-34
2022/12/29 04:50:13;;;;;;;;;;;;;;;13.76;nan;100454.31;5065761;28;20147;-34
2022/12/29 04:52:38;;;;;;;;;;;;;;;13.77;nan;100447.84;5059420;28;19963;-34
2022/12/29 04:55:04;;;;;;;;;;;;;;;13.83;nan;100452.94;5060489;28;19917;-35
2022/12/29 04:57:29;;;;;;;;;;;;;;;13.86;nan;100451.59;5061512;28;19924;-34
2022/12/29 04:59:55;;;;;;;;;;;;;;;13.88;nan;100444.84;5062300;28;19917;-34
2022/12/29 05:02:20;;;;;;;;;;;;;;;13.85;nan;100441.91;5063150;28;20178;-34
2022/12/29 05:04:46;;;;;;;;;;;;;;;13.84;nan;100456.44;5060484;28;20015;-35
2022/12/29 05:07:11;;;;;;;;;;;;;;;13.80;nan;100449.97;5059590;28;19949;-34
2022/12/29 05:09:37;;;;;;;;;;;;;;;13.84;nan;100426.81;5059523;28;19917;-34
2022/12/29 05:12:02;;;;;;;;;;;;;;;13.80;nan;100415.78;5061729;28;20349;-34
2022/12/29 05:14:27;;;;;;;;;;;;;;;13.84;nan;100427.63;5060797;28;20447;-35
2022/12/29 05:16:53;;;;;;;;;;;;;;;13.88;nan;100428.69;5063266;28;19913;-34
2022/12/29 05:19:18;;;;;;;;;;;;;;;13.98;nan;100424.31;5064495;28;19928;-34
2022/12/29 05:21:43;;;;;;;;;;;;;;;13.95;nan;100431.06;5062152;28;20046;-34
2022/12/29 05:24:09;;;;;;;;;;;;;;;13.95;nan;100428.38;5063229;28;20007;-35
2022/12/29 05:26:34;;;;;;;;;;;;;;;14.01;nan;100435.34;5061126;28;19916;-34
2022/12/29 05:28:59;;;;;;;;;;;;;;;13.98;nan;100429.69;5058649;28;19991;-35
2022/12/29 05:31:25;;;;;;;;;;;;;;;14.02;nan;100428.88;5061511;28;20011;-34
2022/12/29 05:33:50;;;;;;;;;;;;;;;14.03;nan;100425.09;5060238;28;19920;-34
2022/12/29 05:36:16;;;;;;;;;;;;;;;13.98;nan;100417.03;5064257;28;19921;-34
2022/12/29 05:38:41;;;;;;;;;;;;;;;13.95;nan;100408.72;5059134;28;19927;-35
2022/12/29 05:41:06;;;;;;;;;;;;;;;14.00;nan;100409.47;5059507;28;19970;-34
2022/12/29 05:43:31;;;;;;;;;;;;;;;14.02;nan;100406.53;5060470;28;19924;-34
2022/12/29 05:45:57;;;;;;;;;;;;;;;14.05;nan;100409.47;5060793;28;19943;-34
2022/12/29 05:48:22;;;;;;;;;;;;;;;14.06;nan;100411.06;5058338;28;19924;-34
2022/12/29 05:50:49;;;;;;;;;;;;;;;14.08;nan;100400.00;5060881;28;19924;-34
2022/12/29 05:53:14;;;;;;;;;;;;;;;14.08;nan;100400.00;5059680;28;19969;-35
2022/12/29 05:55:39;;;;;;;;;;;;;;;14.13;nan;100389.19;5060442;28;20316;-34
2022/12/29 05:58:05;;;;;;;;;;;;;;;14.17;nan;100376.78;5058579;28;19916;-34
2022/12/29 06:00:30;;;;;;;;;;;;;;;14.12;nan;100372.22;5059648;28;19920;-34
2022/12/29 06:02:55;;;;;;;;;;;;;;;14.15;nan;100371.66;5062612;28;19978;-34
2022/12/29 06:05:21;;;;;;;;;;;;;;;14.23;nan;100374.84;5061059;28;20271;-34
2022/12/29 06:07:46;;;;;;;;;;;;;;;14.22;nan;100374.06;5059550;28;20610;-35
2022/12/29 06:10:12;;;;;;;;;;;;;;;14.21;nan;100378.63;5061442;28;20046;-34
2022/12/29 06:12:37;;;;;;;;;;;;;;;14.22;nan;100387.53;5059815;28;19939;-35
2022/12/29 06:15:03;;;;;;;;;;;;;;;14.29;nan;100398.78;5061576;28;20006;-34
2022/12/29 06:17:28;;;;;;;;;;;;;;;14.19;nan;100386.22;5059997;28;19925;-35
2022/12/29 06:19:54;;;;;;;;;;;;;;;14.18;nan;100375.69;5058678;28;20341;-34
2022/12/29 06:22:19;;;;;;;;;;;;;;;14.16;nan;100380.56;5057710;28;19924;-34
2022/12/29 06:24:44;;;;;;;;;;;;;;;14.12;nan;100390.28;5060817;28;19916;-35
2022/12/29 06:27:10;;;;;;;;;;;;;;;14.15;nan;100389.72;5059090;28;19931;-35
2022/12/29 06:29:36;;;;;;;;;;;;;;;14.13;nan;100391.88;5060500;28;20022;-35
2022/12/29 06:32:02;;;;;;;;;;;;;;;14.20;nan;100403.97;5059544;28;19943;-34
2022/12/29 06:34:28;;;;;;;;;;;;;;;14.17;nan;100390.25;5060981;28;19955;-35
2022/12/29 06:36:54;;;;;;;;;;;;;;;14.24;nan;100392.63;5062464;28;19951;-34
2022/12/29 06:39:19;;;;;;;;;;;;;;;14.28;nan;100390.97;5060074;28;19958;-34
2022/12/29 06:41:44;;;;;;;;;;;;;;;14.29;nan;100387.19;5056635;28;19924;-35
2022/12/29 06:44:10;;;;;;;;;;;;;;;14.21;nan;100386.72;5061275;28;19927;-34
2022/12/29 06:46:35;;;;;;;;;;;;;;;14.27;nan;100386.69;5058515;28;20018;-34
2022/12/29 06:49:00;;;;;;;;;;;;;;;14.37;nan;100405.47;5060480;28;19928;-34
2022/12/29 06:51:26;;;;;;;;;;;;;;;14.33;nan;100397.13;5058730;28;19920;-34
2022/12/29 06:53:51;;;;;;;;;;;;;;;14.30;nan;100400.38;5058677;28;20019;-35
2022/12/29 06:56:16;;;;;;;;;;;;;;;14.33;nan;100404.41;5052144;28;20010;-34
2022/12/29 06:58:42;;;;;;;;;;;;;;;14.36;nan;100414.63;5050321;28;19921;-34
2022/12/29 07:01:07;;;;;;;;;;;;;;;14.32;nan;100406.31;5048152;28;20431;-34
2022/12/29 07:03:32;;;;;;;;;;;;;;;14.35;nan;100403.03;5048563;28;19966;-35
2022/12/29 07:05:58;;;;;;;;;;;;;;;14.35;nan;100399.53;5049219;28;19997;-35
2022/12/29 07:08:24;;;;;;;;;;;;;;;14.41;nan;100403.81;5046538;28;20408;-35
2022/12/29 07:10:49;;;;;;;;;;;;;;;14.40;nan;100405.72;5049919;28;19928;-35
2022/12/29 07:13:15;;;;;;;;;;;;;;;14.40;nan;100402.22;5047820;28;20564;-35
2022/12/29 07:15:40;;;;;;;;;;;;;;;14.40;nan;100391.44;5048933;28;19967;-35
2022/12/29 07:18:05;;;;;;;;;;;;;;;14.42;nan;100402.75;5050341;28;19998;-34
2022/12/29 07:20:31;;;;;;;;;;;;;;;14.44;nan;100395.19;5048593;28;19931;-34
2022/12/29 07:22:57;;;;;;;;;;;;;;;14.46;nan;100387.63;5049312;28;19959;-35
2022/12/29 07:25:22;;;;;;;;;;;;;;;14.48;nan;100377.38;5048350;28;20419;-34
2022/12/29 07:27:48;;;;;;;;;;;;;;;14.51;nan;100382.19;5048893;28;19929;-34
2022/12/29 07:30:14;;;;;;;;;;;;;;;14.58;nan;100381.88;5049990;28;20586;-34
2022/12/29 07:32:39;;;;;;;;;;;;;;;14.60;nan;100385.91;5050685;28;19947;-35
2022/12/29 07:35:04;;;;;;;;;;;;;;;14.65;nan;100385.03;5046807;28;20306;-35
2022/12/29 07:37:30;;;;;;;;;;;;;;;14.71;nan;100382.00;5048500;28;20367;-35
2022/12/29 07:39:55;;;;;;;;;;;;;;;14.76;nan;100381.97;5049395;28;20394;-34
2022/12/29 07:42:20;;;;;;;;;;;;;;;14.82;nan;100394.31;5048850;28;20373;-34
2022/12/29 07:44:46;;;;;;;;;;;;;;;14.84;nan;100390.53;5050146;28;20023;-35
2022/12/29 07:47:11;;;;;;;;;;;;;;;14.87;nan;100385.38;5050816;28;20022;-33
2022/12/29 07:49:36;;;;;;;;;;;;;;;14.91;nan;100388.31;5049790;28;20015;-34
2022/12/29 07:52:02;;;;;;;;;;;;;;;14.92;nan;100393.44;5050538;28;19940;-33
2022/12/29 07:54:27;;;;;;;;;;;;;;;14.92;nan;100384.53;5047499;28;19924;-33
2022/12/29 07:56:52;;;;;;;;;;;;;;;14.87;nan;100376.47;5046960;28;19924;-34
2022/12/29 07:59:18;;;;;;;;;;;;;;;14.92;nan;100371.03;5053612;28;19927;-33
2022/12/29 08:01:43;;;;;;;;;;;;;;;14.94;nan;100368.84;5053697;28;20001;-33
2022/12/29 08:04:08;;;;;;;;;;;;;;;14.96;nan;100380.16;5053601;28;19920;-33
2022/12/29 08:06:34;;;;;;;;;;;;;;;14.96;nan;100382.88;5053017;28;20393;-33
2022/12/29 08:09:00;;;;;;;;;;;;;;;15.03;nan;100383.31;5050012;28;19929;-33
2022/12/29 08:11:26;;;;;;;;;;;;;;;15.03;nan;100367.94;5054240;28;19931;-34
2022/12/29 08:13:51;;;;;;;;;;;;;;;15.08;nan;100369.75;5052766;28;20332;-33
2022/12/29 08:16:17;;;;;;;;;;;;;;;15.11;nan;100369.22;5053361;28;20290;-33
2022/12/29 08:18:42;;;;;;;;;;;;;;;15.18;nan;100366.97;5048113;28;19960;-33
2022/12/29 08:21:07;;;;;;;;;;;;;;;15.21;nan;100363.69;5055939;28;19959;-33
2022/12/29 08:23:33;;;;;;;;;;;;;;;15.24;nan;100365.78;5052807;28;19931;-33
2022/12/29 08:25:59;;;;;;;;;;;;;;;15.27;nan;100369.84;5053792;28;19925;-33
2022/12/29 08:28:25;;;;;;;;;;;;;;;15.28;nan;100380.34;5053116;28;20015;-33
2022/12/29 08:30:50;;;;;;;;;;;;;;;15.32;nan;100381.38;5053123;28;19944;-33
2022/12/29 08:33:15;;;;;;;;;;;;;;;15.43;nan;100393.63;5054264;28;20332;-34
2022/12/29 08:35:41;;;;;;;;;;;;;;;15.38;nan;100372.09;5050969;28;20596;-33
2022/12/29 08:38:06;;;;;;;;;;;;;;;15.51;nan;100383.31;5051703;28;19924;-33
2022/12/29 08:40:31;;;;;;;;;;;;;;;15.47;nan;100382.28;5052722;28;19967;-33
2022/12/29 08:42:57;;;;;;;;;;;;;;;15.55;nan;100387.03;5054699;28;19920;-33
2022/12/29 08:45:22;;;;;;;;;;;;;;;15.57;nan;100385.63;5050018;28;20011;-34
2022/12/29 08:47:48;;;;;;;;;;;;;;;15.60;nan;100376.19;5048146;28;20337;-33
2022/12/29 08:50:13;;;;;;;;;;;;;;;15.59;nan;100379.97;5052387;28;19921;-33
2022/12/29 08:52:38;;;;;;;;;;;;;;;15.67;nan;100372.06;5051267;28;20377;-33
2022/12/29 08:55:04;;;;;;;;;;;;;;;15.63;nan;100367.53;5047759;28;20032;-34
2022/12/29 08:57:29;;;;;;;;;;;;;;;15.67;nan;100372.06;5050132;28;19931;-33
2022/12/29 08:59:54;;;;;;;;;;;;;;;15.66;nan;100375.03;5056910;28;20337;-33
2022/12/29 09:02:20;;;;;;;;;;;;;;;15.70;nan;100371.47;5060309;28;19966;-33
2022/12/29 09:04:45;;;;;;;;;;;;;;;15.74;nan;100376.28;5061426;28;19920;-33
2022/12/29 09:07:10;;;;;;;;;;;;;;;15.79;nan;100368.91;5059413;28;19929;-33
2022/12/29 09:09:36;;;;;;;;;;;;;;;15.90;nan;100372.28;5054890;28;19931;-33
2022/12/29 09:12:01;;;;;;;;;;;;;;;15.98;nan;100379.72;5058392;28;19925;-33
2022/12/29 09:14:26;;;;;;;;;;;;;;;16.05;nan;100361.25;5061749;28;19920;-33
2022/12/29 09:19:36;;;;;;;;;;;;;;;16.17;nan;100361.59;5061371;28;19966;-34
2022/12/29 09:22:01;;;;;;;;;;;;;;;16.23;nan;100346.91;5060239;28;20684;-33
2022/12/29 09:24:26;;;;;;;;;;;;;;;16.26;nan;100350.91;5058964;28;20316;-33
2022/12/29 09:26:52;;;;;;;;;;;;;;;16.30;nan;100350.00;5057293;28;19920;-33
2022/12/29 09:29:17;;;;;;;;;;;;;;;16.42;nan;100356.88;5058166;28;19924;-33
2022/12/29 09:31:42;;;;;;;;;;;;;;;16.51;nan;100357.78;5058666;28;19928;-34
2022/12/29 09:34:08;;;;;;;;;;;;;;;16.62;nan;100354.59;5058621;28;20508;-34
2022/12/29 09:36:33;;;;;;;;;;;;;;;16.76;nan;100351.16;5058075;28;20386;-33
2022/12/29 09:38:58;;;;;;;;;;;;;;;16.76;nan;100351.97;5061836;28;20378;-33
2022/12/29 09:41:26;;;;;;;;;;;;;;;16.69;nan;100348.84;5061641;28;20366;-33
2022/12/29 09:43:59;;;;;;;;;;;;;;;16.71;nan;100332.34;5055785;28;19920;-33
2022/12/29 09:46:34;;;;;;;;;;;;;;;16.79;nan;100331.63;5061258;28;19931;-34
2022/12/29 09:49:12;;;;;;;;;;;;;;;16.90;nan;100333.84;5052595;28;19924;-33
2022/12/29 09:51:38;;;;;;;;;;;;;;;16.90;nan;100322.22;5058358;28;19927;-34
2022/12/29 09:54:23;;;;;;;;;;;;;;;16.93;nan;100337.84;5058798;28;19932;-33
2022/12/29 09:56:49;;;;;;;;;;;;;;;17.00;nan;100332.84;5058653;28;20108;-33
2022/12/29 09:59:20;;;;;;;;;;;;;;;17.11;nan;100347.78;5057894;28;19989;-33
2022/12/29 10:01:45;;;;;;;;;;;;;;;17.19;nan;100335.44;5056336;28;19916;-33
2022/12/29 10:04:10;;;;;;;;;;;;;;;17.21;nan;100347.56;5057480;28;20397;-33
2022/12/29 10:06:42;;;;;;;;;;;;;;;17.18;nan;100326.50;5061524;28;19921;-33
2022/12/29 10:09:10;;;;;;;;;;;;;;;17.26;nan;100318.81;5060612;28;20019;-34
2022/12/29 10:12:01;;;;;;;;;;;;;;;17.30;nan;100319.78;5061456;28;19921;-34
2022/12/29 10:14:36;;;;;;;;;;;;;;;17.44;nan;100336.84;5057278;28;19953;-34
2022/12/29 10:17:20;;;;;;;;;;;;;;;17.50;nan;100335.59;5059251;28;19935;-33
2022/12/29 10:19:57;;;;;;;;;;;;;;;17.47;nan;100337.03;5058413;28;19993;-34
2022/12/29 10:22:29;;;;;;;;;;;;;;;17.52;nan;100322.56;5058862;28;20449;-34
2022/12/29 10:24:55;;;;;;;;;;;;;;;17.61;nan;100317.22;5057748;28;19916;-34
2022/12/29 10:27:21;;;;;;;;;;;;;;;17.58;nan;100326.75;5055331;28;19925;-34
2022/12/29 10:29:54;;;;;;;;;;;;;;;17.62;nan;100322.34;5056164;28;20454;-34
2022/12/29 10:32:26;;;;;;;;;;;;;;;17.63;nan;100323.94;5058286;28;20029;-33
2022/12/29 10:34:54;;;;;;;;;;;;;;;17.67;nan;100329.56;5060115;28;19925;-34
2022/12/29 10:37:28;;;;;;;;;;;;;;;17.65;nan;100337.19;5057223;28;20286;-34
2022/12/29 10:39:54;;;;;;;;;;;;;;;17.63;nan;100344.81;5047782;28;20022;-34
2022/12/29 10:42:24;;;;;;;;;;;;;;;17.70;nan;100331.69;5060329;28;19979;-34
2022/12/29 10:44:50;;;;;;;;;;;;;;;17.78;nan;100358.06;5060028;28;19936;-34
2022/12/29 10:47:17;;;;;;;;;;;;;;;17.77;nan;100335.59;5051788;28;19920;-34
2022/12/29 10:49:45;;;;;;;;;;;;;;;17.82;nan;100340.06;5047957;28;19970;-34
2022/12/29 10:52:11;;;;;;;;;;;;;;;17.72;nan;100337.59;5056013;28;19928;-34
2022/12/29 10:54:59;;;;;;;;;;;;;;;17.71;nan;100342.22;5059477;28;19916;-34
2022/12/29 10:57:31;;;;;;;;;;;;;;;17.77;nan;100349.13;5050340;28;20330;-34
2022/12/29 10:59:57;;;;;;;;;;;;;;;17.70;nan;100329.75;5054183;28;19927;-34
2022/12/29 11:02:31;;;;;;;;;;;;;;;17.74;nan;100335.38;5055696;28;19917;-34
2022/12/29 11:04:59;;;;;;;;;;;;;;;17.80;nan;100324.13;5052133;28;20318;-34
2022/12/29 11:07:25;;;;;;;;;;;;;;;17.81;nan;100331.16;5052315;28;20128;-34
2022/12/29 11:09:51;;;;;;;;;;;;;;;17.85;nan;100331.34;5047445;28;19920;-34
2022/12/29 11:12:20;;;;;;;;;;;;;;;17.90;nan;100344.75;5054119;28;20323;-34
2022/12/29 11:14:45;;;;;;;;;;;;;;;17.94;nan;100332.19;5054146;28;19960;-34
2022/12/29 11:17:14;;;;;;;;;;;;;;;18.01;nan;100329.06;5053194;28;20383;-34
2022/12/29 11:19:40;;;;;;;;;;;;;;;18.04;nan;100325.75;5049615;28;19921;-34
2022/12/29 11:22:20;;;;;;;;;;;;;;;18.19;nan;100327.28;5056879;28;19924;-34
2022/12/29 11:24:46;;;;;;;;;;;;;;;18.27;nan;100321.91;5046300;28;19920;-34
2022/12/29 11:27:22;;;;;;;;;;;;;;;18.35;nan;100328.50;5048976;28;19928;-34
2022/12/29 11:29:49;;;;;;;;;;;;;;;18.29;nan;100325.09;5050701;28;20263;-34
2022/12/29 11:32:18;;;;;;;;;;;;;;;18.27;nan;100332.75;5054106;28;20394;-34
2022/12/29 11:34:43;;;;;;;;;;;;;;;18.28;nan;100323.50;5047846;28;20007;-34
2022/12/29 11:37:11;;;;;;;;;;;;;;;18.32;nan;100340.78;5049719;28;19925;-34
2022/12/29 11:39:46;;;;;;;;;;;;;;;18.31;nan;100332.94;5062903;28;19927;-34
2022/12/29 11:42:16;;;;;;;;;;;;;;;18.32;nan;100335.34;5058571;28;19925;-34
2022/12/29 11:44:48;;;;;;;;;;;;;;;18.27;nan;100346.31;5056853;28;20007;-34
2022/12/29 11:47:21;;;;;;;;;;;;;;;18.28;nan;100338.97;5053524;28;19921;-34
2022/12/29 11:49:51;;;;;;;;;;;;;;;18.23;nan;100336.41;5053531;28;19917;-34
2022/12/29 11:52:20;;;;;;;;;;;;;;;18.32;nan;100337.25;5053812;28;19928;-34
2022/12/29 11:54:45;;;;;;;;;;;;;;;18.35;nan;100351.00;5053687;28;19978;-34
2022/12/29 11:57:15;;;;;;;;;;;;;;;18.31;nan;100333.75;5056194;28;19920;-34
2022/12/29 11:59:42;;;;;;;;;;;;;;;18.34;nan;100330.41;5055810;28;19924;-34
2022/12/29 12:02:16;;;;;;;;;;;;;;;18.36;nan;100347.19;5058786;28;20438;-34
2022/12/29 12:04:42;;;;;;;;;;;;;;;18.37;nan;100337.94;5056820;28;19951;-34
2022/12/29 12:07:07;;;;;;;;;;;;;;;18.35;nan;100336.66;5059253;28;19955;-34
2022/12/29 12:09:35;;;;;;;;;;;;;;;18.42;nan;100339.72;5056336;28;19920;-34
2022/12/29 12:12:01;;;;;;;;;;;;;;;18.39;nan;100338.41;5054816;28;19974;-34
2022/12/29 12:14:46;;;;;;;;;;;;;;;18.42;nan;100339.72;5060714;28;20007;-34
2022/12/29 12:17:18;;;;;;;;;;;;;;;18.45;nan;100346.41;5059940;28;19924;-34
2022/12/29 12:19:44;;;;;;;;;;;;;;;18.38;nan;100339.53;5054196;28;19923;-34
2022/12/29 12:22:25;;;;;;;;;;;;;;;18.40;nan;100331.09;5054278;28;20394;-34
2022/12/29 12:24:54;;;;;;;;;;;;;;;18.31;nan;100331.03;5052726;28;20423;-34
2022/12/29 12:27:19;;;;;;;;;;;;;;;18.31;nan;100327.50;5052782;28;19936;-34
2022/12/29 12:30:03;;;;;;;;;;;;;;;18.31;nan;100336.47;5052715;28;19920;-34
2022/12/29 12:32:28;;;;;;;;;;;;;;;18.33;nan;100336.97;5058139;28;20309;-35
2022/12/29 12:34:54;;;;;;;;;;;;;;;18.34;nan;100341.25;5055109;28;19924;-34
2022/12/29 12:37:52;;;;;;;;;;;;;;;18.40;nan;100336.50;5056965;28;19970;-34
2022/12/29 12:40:20;;;;;;;;;;;;;;;18.47;nan;100328.72;5039744;28;20402;-34
2022/12/29 12:42:51;;;;;;;;;;;;;;;18.52;nan;100344.09;5052928;28;20025;-34
2022/12/29 12:45:32;;;;;;;;;;;;;;;18.54;nan;100331.81;5060973;28;19986;-35
2022/12/29 12:48:16;;;;;;;;;;;;;;;18.51;nan;100334.34;5057730;28;20224;-34
2022/12/29 12:50:44;;;;;;;;;;;;;;;18.51;nan;100342.50;5062244;28;19920;-34
2022/12/29 12:53:39;;;;;;;;;;;;;;;18.51;nan;100345.19;5058572;28;19951;-34
2022/12/29 12:56:07;;;;;;;;;;;;;;;18.53;nan;100345.69;5061723;28;20034;-34
2022/12/29 12:58:51;;;;;;;;;;;;;;;18.54;nan;100353.50;5058663;28;19920;-34
2022/12/29 13:01:17;;;;;;;;;;;;;;;18.52;nan;100342.16;5062116;28;19920;-35
2022/12/29 13:03:54;;;;;;;;;;;;;;;18.53;nan;100340.25;5059434;28;19924;-35
2022/12/29 13:06:38;;;;;;;;;;;;;;;18.57;nan;100341.22;5057259;28;19994;-34
2022/12/29 13:09:15;;;;;;;;;;;;;;;18.60;nan;100352.25;5057620;28;19959;-35
2022/12/29 13:12:00;;;;;;;;;;;;;;;18.61;nan;100343.00;5058771;28;19955;-34
2022/12/29 13:14:45;;;;;;;;;;;;;;;18.62;nan;100344.59;5057739;28;19946;-35
2022/12/29 13:17:11;;;;;;;;;;;;;;;18.63;nan;100343.53;5059149;28;20043;-35
2022/12/29 13:19:41;;;;;;;;;;;;;;;18.65;nan;100354.06;5061777;28;20342;-34
2022/12/29 13:22:09;;;;;;;;;;;;;;;18.71;nan;100350.13;5062385;28;19920;-34
2022/12/29 13:24:41;;;;;;;;;;;;;;;18.66;nan;100364.59;5058977;28;19959;-35
2022/12/29 13:27:19;;;;;;;;;;;;;;;18.65;nan;100371.16;5056467;28;20182;-34
2022/12/29 13:29:50;;;;;;;;;;;;;;;18.66;nan;100366.50;5057476;28;19936;-34
2022/12/29 13:32:22;;;;;;;;;;;;;;;18.66;nan;100389.03;5057762;28;20311;-35
2022/12/29 13:35:06;;;;;;;;;;;;;;;18.66;nan;100391.75;5060379;28;19924;-34
2022/12/29 13:37:35;;;;;;;;;;;;;;;18.69;nan;100387.63;5059238;28;20205;-35
2022/12/29 13:40:29;;;;;;;;;;;;;;;18.75;nan;100386.38;5064025;28;19916;-35
2022/12/29 13:42:55;;;;;;;;;;;;;;;18.92;nan;100391.91;5054375;28;19921;-34